createdAt,value
2023-02-02T00:01:52.605Z,101750.63
2023-02-02T00:04:25.016Z,101742.53
2023-02-02T00:06:57.191Z,101738.19
2023-02-02T00:09:29.098Z,101753.31
2023-02-02T00:11:59.308Z,101741.13
2023-02-02T00:14:32.730Z,101748.19
2023-02-02T00:17:02.614Z,101753.84
2023-02-02T00:19:33.667Z,101750.06
2023-02-02T00:22:03.517Z,101749.00
2023-02-02T00:24:33.621Z,101746.28
2023-02-02T00:27:03.700Z,101751.13
2023-02-02T00:29:36.284Z,101751.13
2023-02-02T00:32:06.148Z,101754.41
2023-02-02T00:34:35.908Z,101753.84
2023-02-02T00:37:05.772Z,101756.03
2023-02-02T00:39:35.580Z,101752.78
2023-02-02T00:42:05.380Z,101745.72
2023-02-02T00:44:50.104Z,101743.59
2023-02-02T00:47:20.480Z,101744.69
2023-02-02T00:49:50.208Z,101755.75
2023-02-02T00:52:19.854Z,101751.66
2023-02-02T00:54:49.657Z,101748.44
2023-02-02T00:57:19.530Z,101748.16
2023-02-02T00:59:51.927Z,101748.97
2023-02-02T01:02:21.762Z,101748.44
2023-02-02T01:04:51.799Z,101756.81
2023-02-02T01:07:21.595Z,101748.97
2023-02-02T01:09:51.656Z,101756.56
2023-02-02T01:12:21.503Z,101758.44
2023-02-02T01:14:54.179Z,101744.66
2023-02-02T01:17:23.942Z,101748.44
2023-02-02T01:19:54.217Z,101744.66
2023-02-02T01:22:23.984Z,101747.91
2023-02-02T01:24:53.795Z,101750.06
2023-02-02T01:27:23.561Z,101740.59
2023-02-02T01:29:55.927Z,101752.22
2023-02-02T01:32:25.642Z,101745.22
2023-02-02T01:34:55.363Z,101752.47
2023-02-02T01:37:25.149Z,101746.28
2023-02-02T01:39:54.891Z,101748.97
2023-02-02T01:42:26.427Z,101746.28
2023-02-02T01:45:22.743Z,101749.53
2023-02-02T01:47:56.999Z,101752.22
2023-02-02T01:50:30.270Z,101767.66
2023-02-02T01:53:03.656Z,101760.34
2023-02-02T01:55:35.623Z,101767.88
2023-02-02T01:58:09.140Z,101773.28
2023-02-02T02:00:45.649Z,101776.00
2023-02-02T02:03:19.800Z,101774.94
2023-02-02T02:05:52.390Z,101769.25
2023-02-02T02:08:24.475Z,101775.47
2023-02-02T02:10:54.213Z,101771.41
2023-02-02T02:13:46.611Z,101769.22
2023-02-02T02:16:29.350Z,101770.59
2023-02-02T02:19:15.668Z,101759.25
2023-02-02T02:22:09.025Z,101762.50
2023-02-02T02:25:20.963Z,101763.56
2023-02-02T02:28:22.675Z,101759.50
2023-02-02T02:31:08.326Z,101757.09
2023-02-02T02:33:49.596Z,101765.19
2023-02-02T02:36:27.011Z,101756.00
2023-02-02T02:39:03.211Z,101759.22
2023-02-02T02:41:41.007Z,101767.63
2023-02-02T02:44:14.734Z,101763.03
2023-02-02T02:46:45.643Z,101758.16
2023-02-02T02:49:18.043Z,101757.63
2023-02-02T02:51:49.856Z,101751.13
2023-02-02T02:54:23.516Z,101760.03
2023-02-02T02:57:19.126Z,101767.88
2023-02-02T02:59:56.912Z,101758.16
2023-02-02T03:02:38.456Z,101769.75
2023-02-02T03:05:27.787Z,101767.59
2023-02-02T03:08:07.101Z,101756.28
2023-02-02T03:10:38.686Z,101781.94
2023-02-02T03:13:11.812Z,101779.78
2023-02-02T03:15:43.894Z,101763.53
2023-02-02T03:18:14.679Z,101766.81
2023-02-02T03:20:48.203Z,101763.31
2023-02-02T03:23:18.445Z,101758.38
2023-02-02T03:25:48.768Z,101765.72
2023-02-02T03:28:19.329Z,101757.63
2023-02-02T03:30:50.606Z,101763.03
2023-02-02T03:33:21.400Z,101765.16
2023-02-02T03:35:54.192Z,101764.63
2023-02-02T03:38:23.943Z,101765.19
2023-02-02T03:40:54.307Z,101763.00
2023-02-02T03:43:25.087Z,101765.72
2023-02-02T03:45:59.494Z,101765.44
2023-02-02T03:48:29.751Z,101766.25
2023-02-02T03:51:02.107Z,101762.47
2023-02-02T03:53:32.122Z,101761.41
2023-02-02T03:56:01.870Z,101763.53
2023-02-02T03:58:31.592Z,101770.84
2023-02-02T04:01:05.146Z,101773.00
2023-02-02T04:03:35.379Z,101767.34
2023-02-02T04:06:08.268Z,101770.59
2023-02-02T04:08:39.838Z,101773.31
2023-02-02T04:11:12.982Z,101776.81
2023-02-02T04:13:43.503Z,101777.09
2023-02-02T04:16:13.818Z,101770.03
2023-02-02T04:18:43.599Z,101776.53
2023-02-02T04:21:16.090Z,101777.88
2023-02-02T04:23:45.839Z,101780.34
2023-02-02T04:26:15.897Z,101782.75
2023-02-02T04:28:45.626Z,101787.31
2023-02-02T04:31:15.467Z,101782.72
2023-02-02T04:33:45.442Z,101779.50
2023-02-02T04:36:18.016Z,101786.25
2023-02-02T04:38:51.665Z,101782.47
2023-02-02T04:41:21.784Z,101775.97
2023-02-02T04:43:51.604Z,101773.28
2023-02-02T04:46:21.441Z,101779.25
2023-02-02T04:48:52.110Z,101780.34
2023-02-02T04:51:24.478Z,101778.97
2023-02-02T04:53:54.280Z,101787.59
2023-02-02T04:56:24.012Z,101781.38
2023-02-02T04:58:57.189Z,101774.91
2023-02-02T05:01:27.258Z,101785.19
2023-02-02T05:03:57.579Z,101779.22
2023-02-02T05:06:29.899Z,101781.91
2023-02-02T05:09:00.124Z,101777.06
2023-02-02T05:11:31.081Z,101775.97
2023-02-02T05:14:00.885Z,101769.75
2023-02-02T05:16:30.765Z,101768.38
2023-02-02T05:19:00.725Z,101770.56
2023-02-02T05:21:33.071Z,101773.84
2023-02-02T05:24:03.744Z,101775.16
2023-02-02T05:26:33.623Z,101777.31
2023-02-02T05:29:03.589Z,101775.97
2023-02-02T05:31:34.134Z,101778.16
2023-02-02T05:34:03.880Z,101774.91
2023-02-02T05:36:36.155Z,101778.69
2023-02-02T05:39:05.959Z,101797.91
2023-02-02T05:41:35.781Z,101784.66
2023-02-02T05:44:06.699Z,101791.97
2023-02-02T05:46:36.478Z,101785.75
2023-02-02T05:49:06.683Z,101792.72
2023-02-02T05:51:44.018Z,101793.00
2023-02-02T05:54:17.443Z,101794.06
2023-02-02T05:56:47.181Z,101788.94
2023-02-02T05:59:17.553Z,101792.72
2023-02-02T06:01:47.882Z,101794.63
2023-02-02T06:04:18.316Z,101801.66
2023-02-02T06:06:50.802Z,101810.09
2023-02-02T06:09:20.541Z,101801.41
2023-02-02T06:11:50.460Z,101794.91
2023-02-02T06:14:20.537Z,101801.66
2023-02-02T06:16:50.367Z,101798.94
2023-02-02T06:19:20.328Z,101809.78
2023-02-02T06:21:52.958Z,101813.31
2023-02-02T06:24:22.724Z,101808.16
2023-02-02T06:26:52.576Z,101813.31
2023-02-02T06:29:22.422Z,101805.72
2023-02-02T06:31:52.355Z,101808.72
2023-02-02T06:34:22.370Z,101816.53
2023-02-02T06:36:54.706Z,101807.63
2023-02-02T06:39:24.390Z,101805.97
2023-02-02T06:41:54.135Z,101813.28
2023-02-02T06:44:23.918Z,101824.66
2023-02-02T06:46:53.712Z,101828.44
2023-02-02T06:49:23.692Z,101824.38
2023-02-02T06:51:56.124Z,101830.59
2023-02-02T06:54:26.014Z,101841.41
2023-02-02T06:56:56.215Z,101834.69
2023-02-02T06:59:25.993Z,101841.41
2023-02-02T07:01:55.985Z,101832.78
2023-02-02T07:04:25.809Z,101831.69
2023-02-02T07:06:58.296Z,101840.91
2023-02-02T07:09:28.250Z,101835.72
2023-02-02T07:11:59.455Z,101840.63
2023-02-02T07:14:29.935Z,101836.53
2023-02-02T07:16:59.791Z,101828.44
2023-02-02T07:19:29.543Z,101834.91
2023-02-02T07:22:02.013Z,101843.56
2023-02-02T07:24:33.020Z,101840.56
2023-02-02T07:27:02.800Z,101845.19
2023-02-02T07:29:32.691Z,101841.13
2023-02-02T07:32:02.510Z,101848.97
2023-02-02T07:34:32.244Z,101856.00
2023-02-02T07:37:04.779Z,101847.34
2023-02-02T07:39:34.570Z,101851.97
2023-02-02T07:42:05.606Z,101849.78
2023-02-02T07:44:35.442Z,101856.00
2023-02-02T07:47:05.250Z,101855.47
2023-02-02T07:49:35.370Z,101852.53
2023-02-02T07:52:07.874Z,101856.56
2023-02-02T07:54:37.760Z,101864.69
2023-02-02T07:57:07.709Z,101860.38
2023-02-02T07:59:37.460Z,101856.00
2023-02-02T08:02:07.394Z,101870.06
2023-02-02T08:04:37.203Z,101862.22
2023-02-02T08:07:09.877Z,101880.88
2023-02-02T08:09:39.749Z,101879.53
2023-02-02T08:12:09.592Z,101871.72
2023-02-02T08:14:39.500Z,101882.25
2023-02-02T08:17:09.510Z,101878.75
2023-02-02T08:19:39.290Z,101892.25
2023-02-02T08:22:11.705Z,101889.56
2023-02-02T08:24:43.056Z,101891.75
2023-02-02T08:27:13.645Z,101889.03
2023-02-02T08:29:43.433Z,101893.91
2023-02-02T08:32:13.282Z,101901.47
2023-02-02T08:34:43.163Z,101899.31
2023-02-02T08:37:15.696Z,101894.16
2023-02-02T08:39:45.847Z,101907.44
2023-02-02T08:42:16.020Z,101900.94
2023-02-02T08:46:03.354Z,101899.56
2023-02-02T08:47:38.138Z,101906.06
2023-02-02T08:50:09.503Z,101909.06
2023-02-02T08:52:41.947Z,101908.53
2023-02-02T08:55:12.253Z,101915.56
2023-02-02T08:57:42.335Z,101921.22
2023-02-02T09:00:13.902Z,101920.16
2023-02-02T09:02:43.644Z,101920.97
2023-02-02T09:05:13.407Z,101925.28
2023-02-02T09:07:47.317Z,101928.78
2023-02-02T09:10:17.213Z,101927.47
2023-02-02T09:12:47.065Z,101942.06
2023-02-02T09:15:16.919Z,101950.97
2023-02-02T09:17:46.640Z,101963.97
2023-02-02T09:20:16.423Z,101962.63
2023-02-02T09:22:48.793Z,101956.13
2023-02-02T09:25:18.733Z,101970.75
2023-02-02T09:27:48.481Z,101971.28
2023-02-02T09:30:18.629Z,101978.31
2023-02-02T09:32:51.239Z,101974.53
2023-02-02T09:35:21.016Z,101982.09
2023-02-02T09:37:53.512Z,101988.59
2023-02-02T09:40:27.970Z,101987.50
2023-02-02T09:43:08.456Z,102011.31
2023-02-02T09:45:44.244Z,102007.81
2023-02-02T09:48:29.836Z,101998.88
2023-02-02T09:51:02.471Z,102011.59
2023-02-02T09:53:55.240Z,102016.19
2023-02-02T09:56:30.259Z,102017.00
2023-02-02T09:59:18.808Z,102021.06
2023-02-02T10:01:52.899Z,102023.25
2023-02-02T10:04:29.428Z,102022.41
2023-02-02T10:07:02.057Z,102032.97
2023-02-02T10:09:43.784Z,102030.81
2023-02-02T10:12:28.592Z,102032.41
2023-02-02T10:15:04.409Z,102028.09
2023-02-02T10:17:43.809Z,102031.91
2023-02-02T10:20:25.707Z,102029.19
2023-02-02T10:22:59.023Z,102029.19
2023-02-02T10:25:32.577Z,102036.22
2023-02-02T10:28:09.902Z,102035.13
2023-02-02T10:30:48.117Z,102038.66
2023-02-02T10:33:28.884Z,102042.16
2023-02-02T10:36:05.223Z,102045.69
2023-02-02T10:38:44.994Z,102047.88
2023-02-02T10:41:27.094Z,102040.56
2023-02-02T10:44:12.145Z,102040.03
2023-02-02T10:46:45.053Z,102048.13
2023-02-02T10:49:20.481Z,102048.13
2023-02-02T10:51:58.284Z,102062.22
2023-02-02T10:54:57.817Z,102044.63
2023-02-02T10:57:49.982Z,102056.81
2023-02-02T11:00:25.602Z,102054.34
2023-02-02T11:02:56.347Z,102057.34
2023-02-02T11:05:40.148Z,102064.38
2023-02-02T11:08:18.471Z,102069.78
2023-02-02T11:10:49.762Z,102066.00
2023-02-02T11:13:30.404Z,102067.88
2023-02-02T11:16:23.175Z,102074.41
2023-02-02T11:18:53.402Z,102074.69
2023-02-02T11:21:27.026Z,102072.50
2023-02-02T11:23:58.674Z,102065.47
2023-02-02T11:26:29.907Z,102067.63
2023-02-02T11:29:02.611Z,102071.97
2023-02-02T11:31:37.106Z,102080.63
2023-02-02T11:34:20.910Z,102071.97
2023-02-02T11:37:18.795Z,102071.41
2023-02-02T11:39:48.652Z,102057.88
2023-02-02T11:42:20.258Z,102055.19
2023-02-02T11:44:55.132Z,102057.84
2023-02-02T11:47:29.685Z,102048.16
2023-02-02T11:50:02.136Z,102054.09
2023-02-02T11:52:36.176Z,102061.13
2023-02-02T11:55:18.277Z,102056.78
2023-02-02T11:58:25.053Z,102052.47
2023-02-02T12:01:00.541Z,102058.94
2023-02-02T12:03:33.304Z,102057.06
2023-02-02T12:06:04.911Z,102060.31
2023-02-02T12:08:34.678Z,102066.00
2023-02-02T12:11:08.242Z,102061.38
2023-02-02T12:13:53.190Z,102058.94
2023-02-02T12:16:43.488Z,102064.38
2023-02-02T12:19:44.337Z,102058.94
2023-02-02T12:22:27.424Z,102063.56
2023-02-02T12:25:03.280Z,102058.94
2023-02-02T12:27:42.592Z,102062.19
2023-02-02T12:30:32.584Z,102069.22
2023-02-02T12:33:24.304Z,102058.94
2023-02-02T12:36:14.958Z,102063.81
2023-02-02T12:39:06.508Z,102065.72
2023-02-02T12:42:05.257Z,102063.28
2023-02-02T12:44:45.779Z,102060.00
2023-02-02T12:47:24.240Z,102059.47
2023-02-02T12:50:07.605Z,102061.38
2023-02-02T12:52:54.585Z,102059.47
2023-02-02T12:55:33.041Z,102054.06
2023-02-02T12:58:15.792Z,102054.59
2023-02-02T13:01:04.499Z,102038.38
2023-02-02T13:03:45.114Z,102049.22
2023-02-02T13:06:40.315Z,102034.03
2023-02-02T13:09:15.015Z,102040.00
2023-02-02T13:11:50.159Z,102041.09
2023-02-02T13:14:25.544Z,102046.47
2023-02-02T13:17:00.039Z,102054.63
2023-02-02T13:19:35.226Z,102059.47
2023-02-02T13:22:14.559Z,102063.53
2023-02-02T13:24:47.775Z,102064.34
2023-02-02T13:27:22.671Z,102063.81
2023-02-02T13:29:57.480Z,102068.69
2023-02-02T13:32:32.155Z,102068.97
2023-02-02T13:35:06.323Z,102072.75
2023-02-02T13:37:45.509Z,102081.16
2023-02-02T13:40:27.073Z,102084.94
2023-02-02T13:43:03.448Z,102077.34
2023-02-02T13:45:45.613Z,102086.56
2023-02-02T13:48:25.884Z,102085.47
2023-02-02T13:51:15.186Z,102080.06
2023-02-02T13:54:01.586Z,102087.09
2023-02-02T13:56:43.379Z,102076.28
2023-02-02T13:59:50.594Z,102081.16
2023-02-02T14:02:26.687Z,102073.56
2023-02-02T14:04:59.221Z,102073.84
2023-02-02T14:07:41.928Z,102080.59
2023-02-02T14:10:28.423Z,102071.41
2023-02-02T14:13:01.501Z,102071.13
2023-02-02T14:15:42.970Z,102078.16
2023-02-02T14:18:12.843Z,102075.19
2023-02-02T14:20:46.294Z,102082.25
2023-02-02T14:23:51.308Z,102085.75
2023-02-02T14:26:44.380Z,102092.53
2023-02-02T14:29:39.641Z,102092.53
2023-02-02T14:32:34.886Z,102086.28
2023-02-02T14:35:40.470Z,102089.28
2023-02-02T14:38:14.953Z,102088.72
2023-02-02T14:40:52.519Z,102087.63
2023-02-02T14:43:44.838Z,102088.19
2023-02-02T14:46:48.569Z,102092.53
2023-02-02T14:49:24.646Z,102096.84
2023-02-02T14:51:58.565Z,102095.75
2023-02-02T14:54:36.639Z,102099.03
2023-02-02T14:57:10.502Z,102104.44
2023-02-02T14:59:48.662Z,102107.16
2023-02-02T15:02:22.392Z,102108.22
2023-02-02T15:04:52.617Z,102115.00
2023-02-02T15:07:52.336Z,102121.78
2023-02-02T15:10:53.911Z,102124.75
2023-02-02T15:13:24.861Z,102116.38
2023-02-02T15:16:14.206Z,102117.72
2023-02-02T15:18:47.605Z,102122.59
2023-02-02T15:21:22.130Z,102120.97
2023-02-02T15:23:52.004Z,102122.31
2023-02-02T15:26:26.697Z,102120.16
2023-02-02T15:29:02.719Z,102130.19
2023-02-02T15:31:38.650Z,102131.00
2023-02-02T15:34:20.908Z,102125.28
2023-02-02T15:36:54.438Z,102130.69
2023-02-02T15:39:30.851Z,102139.91
2023-02-02T15:42:16.840Z,102147.81
2023-02-02T15:44:46.888Z,102154.84
2023-02-02T15:47:23.363Z,102148.31
2023-02-02T15:49:53.142Z,102154.81
2023-02-02T15:52:29.083Z,102158.91
2023-02-02T15:55:00.999Z,102163.50
2023-02-02T15:57:33.486Z,102158.09
2023-02-02T16:00:24.222Z,102167.84
2023-02-02T16:03:01.506Z,102163.75
2023-02-02T16:05:47.643Z,102167.28
2023-02-02T16:08:22.636Z,102173.78
2023-02-02T16:10:52.741Z,102176.50
2023-02-02T16:13:28.528Z,102170.00
2023-02-02T16:16:00.646Z,102168.38
2023-02-02T16:18:33.349Z,102162.16
2023-02-02T16:21:07.671Z,102170.56
2023-02-02T16:23:38.829Z,102166.22
2023-02-02T16:26:10.293Z,102174.63
2023-02-02T16:28:40.333Z,102177.56
2023-02-02T16:31:10.980Z,102172.72
2023-02-02T16:33:45.784Z,102178.13
2023-02-02T16:36:25.938Z,102173.25
2023-02-02T16:38:58.013Z,102190.56
2023-02-02T16:41:32.402Z,102198.16
2023-02-02T16:44:32.444Z,102197.31
2023-02-02T16:47:03.172Z,102202.47
2023-02-02T16:49:36.371Z,102207.38
2023-02-02T16:52:16.319Z,102206.56
2023-02-02T16:54:54.339Z,102210.63
2023-02-02T16:57:28.557Z,102210.63
2023-02-02T17:00:01.891Z,102205.22
2023-02-02T17:02:35.452Z,102211.19
2023-02-02T17:05:13.244Z,102218.47
2023-02-02T17:07:50.808Z,102204.66
2023-02-02T17:10:31.059Z,102208.72
2023-02-02T17:13:01.979Z,102206.81
2023-02-02T17:15:35.851Z,102209.25
2023-02-02T17:18:07.617Z,102211.13
2023-02-02T17:20:40.077Z,102208.44
2023-02-02T17:23:11.439Z,102217.09
2023-02-02T17:25:45.714Z,102210.31
2023-02-02T17:28:18.879Z,102212.78
2023-02-02T17:30:50.072Z,102218.19
2023-02-02T17:33:21.867Z,102219.28
2023-02-02T17:35:56.228Z,102221.72
2023-02-02T17:38:28.016Z,102224.16
2023-02-02T17:41:01.682Z,102227.69
2023-02-02T17:43:32.148Z,102220.63
2023-02-02T17:46:02.380Z,102227.41
2023-02-02T17:48:32.798Z,102228.50
2023-02-02T17:51:07.318Z,102222.78
2023-02-02T17:53:37.170Z,102225.75
2023-02-02T17:56:07.505Z,102231.19
2023-02-02T17:58:37.377Z,102223.31
2023-02-02T18:01:07.939Z,102226.31
2023-02-02T18:03:41.643Z,102232.53
2023-02-02T18:06:15.062Z,102224.16
2023-02-02T18:08:45.652Z,102226.31
2023-02-02T18:11:18.809Z,102234.41
2023-02-02T18:13:48.945Z,102227.38
2023-02-02T18:16:19.920Z,102236.59
2023-02-02T18:18:49.746Z,102237.69
2023-02-02T18:21:22.198Z,102240.13
2023-02-02T18:23:52.139Z,102242.00
2023-02-02T18:26:24.456Z,102236.06
2023-02-02T18:28:54.873Z,102236.88
2023-02-02T18:31:26.959Z,102233.34
2023-02-02T18:33:57.335Z,102237.69
2023-02-02T18:36:29.797Z,102238.50
2023-02-02T18:38:59.909Z,102236.03
2023-02-02T18:41:30.433Z,102242.03
2023-02-02T18:44:00.721Z,102236.63
2023-02-02T18:46:33.952Z,102235.25
2023-02-02T18:49:04.031Z,102235.53
2023-02-02T18:51:36.419Z,102235.78
2023-02-02T18:54:06.325Z,102226.84
2023-02-02T18:56:36.144Z,102223.06
2023-02-02T18:59:06.597Z,102214.94
2023-02-02T19:01:37.411Z,102213.59
2023-02-02T19:04:07.701Z,102213.03
2023-02-02T19:06:52.796Z,102218.75
2023-02-02T19:09:22.623Z,102212.53
2023-02-02T19:11:55.050Z,102213.34
2023-02-02T19:14:27.715Z,102216.56
2023-02-02T19:17:02.229Z,102217.94
2023-02-02T19:19:36.022Z,102223.06
2023-02-02T19:22:20.093Z,102219.03
2023-02-02T19:24:50.556Z,102225.25
2023-02-02T19:27:22.400Z,102225.25
2023-02-02T19:29:53.888Z,102228.50
2023-02-02T19:32:27.000Z,102235.00
2023-02-02T19:34:58.730Z,102226.88
2023-02-02T19:37:33.036Z,102229.03
2023-02-02T19:40:19.409Z,102234.44
2023-02-02T19:42:52.401Z,102237.16
2023-02-02T19:45:25.413Z,102239.88
2023-02-02T19:47:57.229Z,102232.00
2023-02-02T19:50:29.669Z,102232.28
2023-02-02T19:53:06.778Z,102230.66
2023-02-02T19:55:39.298Z,102224.97
2023-02-02T19:58:18.751Z,102237.97
2023-02-02T20:00:49.458Z,102232.28
2023-02-02T20:03:21.611Z,102233.66
2023-02-02T20:05:53.662Z,102236.59
2023-02-02T20:08:41.751Z,102235.78
2023-02-02T20:11:31.997Z,102226.88
2023-02-02T20:14:03.101Z,102227.13
2023-02-02T20:16:40.887Z,102228.50
2023-02-02T20:19:19.584Z,102226.31
2023-02-02T20:21:51.749Z,102236.03
2023-02-02T20:24:27.363Z,102223.06
2023-02-02T20:26:58.784Z,102210.31
2023-02-02T20:29:35.969Z,102207.63
2023-02-02T20:32:07.809Z,102205.19
2023-02-02T20:34:43.303Z,102205.19
2023-02-02T20:37:23.970Z,102217.66
2023-02-02T20:40:00.295Z,102216.03
2023-02-02T20:42:31.310Z,102210.06
2023-02-02T20:45:01.262Z,102216.56
2023-02-02T20:47:31.046Z,102219.28
2023-02-02T20:50:01.289Z,102218.47
2023-02-02T20:52:31.203Z,102226.88
2023-02-02T20:55:03.852Z,102222.00
2023-02-02T20:57:33.833Z,102223.59
2023-02-02T21:00:03.963Z,102221.97
2023-02-02T21:02:33.788Z,102227.66
2023-02-02T21:05:04.822Z,102229.56
2023-02-02T21:07:34.736Z,102234.97
2023-02-02T21:10:07.853Z,102234.97
2023-02-02T21:12:37.652Z,102242.81
2023-02-02T21:15:08.095Z,102251.47
2023-02-02T21:17:37.828Z,102248.53
2023-02-02T21:20:08.850Z,102256.09
2023-02-02T21:22:38.569Z,102262.06
2023-02-02T21:25:12.532Z,102272.91
2023-02-02T21:27:44.622Z,102272.09
2023-02-02T21:30:16.067Z,102275.88
2023-02-02T21:32:45.902Z,102279.41
2023-02-02T21:35:15.948Z,102279.94
2023-02-02T21:37:47.385Z,102267.47
2023-02-02T21:40:28.793Z,102266.91
2023-02-02T21:43:01.652Z,102277.78
2023-02-02T21:45:37.275Z,102277.50
2023-02-02T21:48:23.239Z,102274.25
2023-02-02T21:50:53.231Z,102277.25
2023-02-02T21:53:25.212Z,102261.53
2023-02-02T21:56:00.182Z,102260.44
2023-02-02T21:58:36.332Z,102254.22
2023-02-02T22:01:21.344Z,102255.03
2023-02-02T22:03:51.937Z,102252.34
2023-02-02T22:06:31.133Z,102252.34
2023-02-02T22:09:05.013Z,102266.41
2023-02-02T22:11:45.724Z,102257.22
2023-02-02T22:14:20.563Z,102264.78
2023-02-02T22:16:53.183Z,102255.03
2023-02-02T22:19:35.732Z,102257.75
2023-02-02T22:22:18.332Z,102252.34
2023-02-02T22:24:50.885Z,102249.88
2023-02-02T22:27:26.298Z,102249.34
2023-02-02T22:30:03.729Z,102254.78
2023-02-02T22:32:33.472Z,102248.00
2023-02-02T22:35:03.185Z,102258.00
2023-02-02T22:37:32.990Z,102244.22
2023-02-02T22:40:03.136Z,102246.66
2023-02-02T22:42:35.580Z,102250.72
2023-02-02T22:45:05.503Z,102250.19
2023-02-02T22:47:35.457Z,102245.31
2023-02-02T22:50:05.174Z,102241.78
2023-02-02T22:52:34.912Z,102247.78
2023-02-02T22:55:04.681Z,102243.16
2023-02-02T22:57:37.081Z,102238.25
2023-02-02T23:00:10.612Z,102230.41
2023-02-02T23:02:40.475Z,102227.44
2023-02-02T23:05:12.705Z,102216.59
2023-02-02T23:07:44.204Z,102222.00
2023-02-02T23:10:16.103Z,102224.72
2023-02-02T23:12:49.062Z,102237.44
2023-02-02T23:15:19.610Z,102232.59
2023-02-02T23:17:49.745Z,102243.69
2023-02-02T23:20:19.682Z,102239.63
2023-02-02T23:22:49.450Z,102249.13
2023-02-02T23:25:20.215Z,102246.41
2023-02-02T23:27:52.655Z,102233.38
2023-02-02T23:30:24.563Z,102230.97
2023-02-02T23:32:54.699Z,102219.59
2023-02-02T23:35:24.411Z,102222.03
2023-02-02T23:37:54.351Z,102210.63
2023-02-02T23:40:24.474Z,102217.69
2023-02-02T23:42:57.395Z,102209.56
2023-02-02T23:45:27.446Z,102191.38
2023-02-02T23:47:57.421Z,102183.53
2023-02-02T23:50:27.675Z,102175.97
2023-02-02T23:52:58.105Z,102188.16
2023-02-02T23:55:27.950Z,102181.38
2023-02-02T23:58:00.332Z,102168.66
